createdAt,value
2018-12-25T00:02:03.443Z,17.8
2018-12-25T00:12:02.648Z,17.7
2018-12-25T00:22:01.831Z,17.7
2018-12-25T00:32:01.034Z,17.7
2018-12-25T00:42:00.229Z,17.7
2018-12-25T00:51:59.428Z,17.7
2018-12-25T01:01:58.630Z,17.7
2018-12-25T01:11:57.827Z,17.7
2018-12-25T01:21:57.024Z,17.6
2018-12-25T01:31:56.224Z,17.6
2018-12-25T01:41:55.422Z,17.6
2018-12-25T01:51:54.625Z,17.6
2018-12-25T02:01:53.825Z,17.6
2018-12-25T02:11:53.017Z,17.6
2018-12-25T02:21:52.211Z,17.6
2018-12-25T02:31:51.409Z,17.6
2018-12-25T02:41:50.615Z,17.5
2018-12-25T02:51:49.809Z,17.5
2018-12-25T03:01:49.005Z,17.5
2018-12-25T03:11:48.206Z,17.4
2018-12-25T03:21:47.400Z,17.4
2018-12-25T03:31:46.601Z,17.4
2018-12-25T03:41:45.791Z,17.4
2018-12-25T03:51:44.997Z,17.4
2018-12-25T04:01:44.186Z,17.3
2018-12-25T04:11:43.393Z,17.3
2018-12-25T04:21:42.581Z,17.3
2018-12-25T04:31:41.779Z,17.3
2018-12-25T04:41:40.981Z,17.2
2018-12-25T04:51:40.182Z,17.2
2018-12-25T05:01:39.381Z,17.2
2018-12-25T05:11:38.571Z,17.2
2018-12-25T05:21:37.766Z,17.2
2018-12-25T05:31:36.960Z,17.1
2018-12-25T05:41:36.162Z,17.1
2018-12-25T05:51:35.358Z,17.1
2018-12-25T06:01:34.552Z,17.1
2018-12-25T06:11:33.747Z,17.1
2018-12-25T06:21:32.939Z,17.1
2018-12-25T06:31:32.145Z,17.1
2018-12-25T06:41:31.337Z,17.1
2018-12-25T06:51:30.528Z,17.1
2018-12-25T07:01:29.732Z,17.1
2018-12-25T07:11:28.929Z,17.1
2018-12-25T07:21:28.114Z,17.1
2018-12-25T07:31:27.321Z,17.1
2018-12-25T07:41:26.510Z,17.1
2018-12-25T07:51:25.711Z,17.1
2018-12-25T08:01:24.906Z,17.1
2018-12-25T08:11:24.110Z,17.1
2018-12-25T08:21:29.167Z,17.1
2018-12-25T08:31:22.488Z,17.1
2018-12-25T08:41:21.687Z,17.1
2018-12-25T08:51:20.881Z,17.1
2018-12-25T09:01:20.076Z,17.1
2018-12-25T09:11:19.270Z,17.1
2018-12-25T09:21:18.461Z,16.9
2018-12-25T09:31:17.666Z,16.9
2018-12-25T09:41:16.854Z,16.9
2018-12-25T09:51:16.052Z,16.9
2018-12-25T10:01:15.246Z,16.9
2018-12-25T10:11:14.443Z,16.9
2018-12-25T10:21:13.633Z,16.9
2018-12-25T10:31:12.830Z,16.9
2018-12-25T10:41:12.026Z,17.1
2018-12-25T10:51:11.225Z,17.1
2018-12-25T11:01:10.424Z,17.1
2018-12-25T11:11:09.616Z,17.1
2018-12-25T11:21:08.800Z,17.1
2018-12-25T11:31:07.999Z,17.1
2018-12-25T11:41:07.196Z,17.1
2018-12-25T11:51:06.393Z,17.1
2018-12-25T12:01:05.580Z,17.1
2018-12-25T12:11:04.774Z,16.9
2018-12-25T12:21:03.970Z,16.9
2018-12-25T12:31:03.172Z,16.9
2018-12-25T12:41:02.365Z,16.9
2018-12-25T12:51:01.550Z,16.9
2018-12-25T13:01:00.749Z,16.9
2018-12-25T13:10:59.949Z,16.9
2018-12-25T13:20:59.138Z,16.9
2018-12-25T13:30:58.328Z,16.9
2018-12-25T13:40:57.519Z,16.9
2018-12-25T13:50:56.725Z,16.9
2018-12-25T14:00:55.918Z,16.8
2018-12-25T14:10:55.111Z,16.8
2018-12-25T14:20:54.300Z,16.8
2018-12-25T14:30:53.492Z,16.8
2018-12-25T14:40:52.698Z,16.8
2018-12-25T14:50:51.878Z,16.8
2018-12-25T15:00:51.078Z,16.8
2018-12-25T15:10:50.275Z,16.8
2018-12-25T15:20:49.461Z,16.7
2018-12-25T15:30:48.664Z,16.7
2018-12-25T15:40:47.850Z,16.7
2018-12-25T15:50:47.137Z,16.7
2018-12-25T16:00:46.242Z,16.6
2018-12-25T16:10:45.438Z,16.6
2018-12-25T16:20:44.631Z,16.6
2018-12-25T16:30:43.816Z,16.6
2018-12-25T16:40:43.013Z,16.6
2018-12-25T16:50:42.203Z,16.6
2018-12-25T17:00:41.404Z,16.6
2018-12-25T17:10:40.599Z,16.6
2018-12-25T17:20:39.790Z,16.5
2018-12-25T17:30:38.979Z,16.5
2018-12-25T17:40:38.177Z,16.5
2018-12-25T17:50:37.372Z,16.5
2018-12-25T18:00:36.560Z,16.5
2018-12-25T18:10:35.756Z,16.5
2018-12-25T18:20:34.948Z,16.4
2018-12-25T18:30:34.134Z,16.4
2018-12-25T18:40:33.332Z,16.4
2018-12-25T18:50:33.641Z,16.4
2018-12-25T19:00:31.722Z,16.4
2018-12-25T19:10:30.909Z,16.3
2018-12-25T19:20:30.110Z,16.3
2018-12-25T19:30:29.306Z,16.3
2018-12-25T19:40:28.489Z,16.3
2018-12-25T19:50:27.683Z,16.3
2018-12-25T20:00:26.877Z,16.3
2018-12-25T20:10:26.066Z,16.3
2018-12-25T20:20:25.265Z,16.3
2018-12-25T20:30:24.453Z,16.3
2018-12-25T20:40:23.654Z,16.3
2018-12-25T20:50:22.843Z,16.3
2018-12-25T21:00:22.041Z,16.3
2018-12-25T21:10:21.225Z,16.3
2018-12-25T21:20:20.419Z,16.3
2018-12-25T21:30:19.617Z,16.3
2018-12-25T21:40:18.821Z,16.3
2018-12-25T21:50:17.999Z,16.3
2018-12-25T22:00:17.200Z,16.3
2018-12-25T22:10:16.383Z,16.3
2018-12-25T22:20:15.579Z,16.3
2018-12-25T22:30:14.775Z,16.2
2018-12-25T22:40:13.969Z,16.2
2018-12-25T22:50:13.156Z,16.2
2018-12-25T23:00:12.346Z,16.2
2018-12-25T23:10:11.549Z,16.2
2018-12-25T23:20:10.741Z,16.2
2018-12-25T23:30:09.934Z,16.2
2018-12-25T23:40:09.126Z,16.1
2018-12-25T23:50:08.315Z,16.1
